Time;durP1;ratioP1;P1;durP2;ratioP2;P2;SDS_P1;SDS_P2;PMS_P1;PMS_P2;Temp;Humidity;BMP_temperature;BMP_pressure;BME280_temperature;BME280_humidity;BME280_pressure;Samples;Min_cycle;Max_cycle;Signal;HPM_P1;HPM_P2
2021/09/22 00:00:20;;;;;;;13.27;11.93;;;;;;;;;;10320744;28;20048;-52
2021/09/22 00:05:19;;;;;;;16.75;12.38;;;;;;;;;;10318969;28;20048;-67
2021/09/22 00:10:19;;;;;;;21.25;13.85;;;;;;;;;;10320030;28;20502;-56
2021/09/22 00:15:20;;;;;;;18.33;12.27;;;;;;;;;;10320143;28;20049;-54
2021/09/22 00:20:22;;;;;;;15.23;12.80;;;;;;;;;;10318727;28;20047;-57
2021/09/22 00:25:33;;;;;;;15.75;12.27;;;;;;;;;;10320204;28;20409;-53
2021/09/22 00:30:32;;;;;;;15.77;14.07;;;;;;;;;;10321246;28;20094;-55
2021/09/22 00:35:33;;;;;;;16.63;13.25;;;;;;;;;;10319461;28;20442;-54
2021/09/22 00:40:31;;;;;;;15.50;14.00;;;;;;;;;;10301897;28;20052;-54
2021/09/22 00:45:33;;;;;;;16.02;13.60;;;;;;;;;;10301748;28;20048;-54
2021/09/22 00:50:31;;;;;;;16.85;13.88;;;;;;;;;;10320350;28;20520;-55
2021/09/22 00:55:31;;;;;;;18.73;14.98;;;;;;;;;;10302290;28;20045;-54
2021/09/22 01:00:29;;;;;;;14.20;12.80;;;;;;;;;;10301199;28;20045;-54
2021/09/22 01:05:30;;;;;;;14.52;12.82;;;;;;;;;;10301203;28;20064;-53
2021/09/22 01:10:28;;;;;;;15.68;14.10;;;;;;;;;;10319428;28;20088;-53
2021/09/22 01:15:28;;;;;;;14.95;13.45;;;;;;;;;;10300757;28;20048;-54
2021/09/22 01:20:29;;;;;;;15.13;13.55;;;;;;;;;;10319926;28;20497;-54
2021/09/22 01:25:30;;;;;;;17.70;15.80;;;;;;;;;;10300002;28;20040;-54
2021/09/22 01:30:28;;;;;;;16.75;14.63;;;;;;;;;;10300184;28;20044;-56
2021/09/22 01:35:27;;;;;;;15.98;14.13;;;;;;;;;;10298591;28;20059;-53
2021/09/22 01:40:41;;;;;;;19.48;15.15;;;;;;;;;;10298185;28;20048;-54
2021/09/22 01:45:40;;;;;;;17.45;15.65;;;;;;;;;;10299083;28;20449;-54
2021/09/22 01:50:38;;;;;;;15.32;13.73;;;;;;;;;;10318188;28;20484;-54
2021/09/22 01:55:37;;;;;;;17.88;14.07;;;;;;;;;;10317570;28;20040;-54
2021/09/22 02:00:42;;;;;;;15.68;13.65;;;;;;;;;;10297795;28;20510;-54
2021/09/22 02:05:46;;;;;;;14.25;12.75;;;;;;;;;;10297497;28;20048;-53
2021/09/22 02:10:51;;;;;;;14.27;11.30;;;;;;;;;;10297526;28;20060;-53
2021/09/22 02:15:52;;;;;;;13.52;12.13;;;;;;;;;;10297655;28;20520;-54
2021/09/22 02:21:10;;;;;;;12.93;11.63;;;;;;;;;;10297390;28;20067;-53
2021/09/22 02:26:10;;;;;;;16.70;12.98;;;;;;;;;;10298004;28;20041;-53
2021/09/22 02:31:13;;;;;;;13.70;12.27;;;;;;;;;;10297558;28;20099;-53
2021/09/22 02:36:26;;;;;;;;;;;;;;;;;;10298382;28;20048;-53
2021/09/22 02:41:34;;;;;;;14.07;12.57;;;;;;;;;;10298112;28;19921;-54
2021/09/22 02:46:33;;;;;;;15.20;12.65;;;;;;;;;;10316788;28;20055;-56
2021/09/22 02:51:34;;;;;;;14.07;12.63;;;;;;;;;;10297799;28;20083;-55
2021/09/22 02:56:32;;;;;;;19.00;13.63;;;;;;;;;;10297641;28;20521;-54
2021/09/22 03:01:34;;;;;;;15.57;13.43;;;;;;;;;;10316416;28;20286;-54
2021/09/22 03:06:33;;;;;;;17.02;15.20;;;;;;;;;;10297713;28;20055;-55
2021/09/22 03:11:32;;;;;;;17.00;13.98;;;;;;;;;;10316537;28;20079;-55
2021/09/22 03:16:32;;;;;;;16.95;13.82;;;;;;;;;;10297427;28;20056;-54
2021/09/22 03:21:32;;;;;;;17.23;14.15;;;;;;;;;;10297536;28;20064;-56
2021/09/22 03:26:30;;;;;;;16.52;14.82;;;;;;;;;;10297280;28;20049;-55
2021/09/22 03:31:29;;;;;;;19.52;14.88;;;;;;;;;;10297617;28;20048;-56
2021/09/22 03:36:28;;;;;;;15.60;12.93;;;;;;;;;;10297272;28;20063;-54
2021/09/22 03:41:28;;;;;;;17.77;13.68;;;;;;;;;;10314140;28;20072;-56
2021/09/22 03:46:27;;;;;;;13.90;12.57;;;;;;;;;;10296771;28;20060;-56
2021/09/22 03:51:26;;;;;;;18.85;13.27;;;;;;;;;;10296929;28;20084;-56
2021/09/22 03:56:24;;;;;;;14.68;13.18;;;;;;;;;;10296780;28;20056;-53
2021/09/22 04:01:24;;;;;;;14.27;11.90;;;;;;;;;;10296640;28;20410;-55
2021/09/22 04:06:23;;;;;;;13.25;11.70;;;;;;;;;;10315441;28;20045;-55
2021/09/22 04:11:22;;;;;;;16.05;10.98;;;;;;;;;;10300873;28;20048;-54
2021/09/22 04:16:21;;;;;;;12.60;11.45;;;;;;;;;;10303574;28;20052;-54
2021/09/22 04:21:21;;;;;;;13.50;11.85;;;;;;;;;;10322742;28;20048;-55
2021/09/22 04:26:21;;;;;;;12.80;11.48;;;;;;;;;;10303840;28;20059;-55
2021/09/22 04:31:27;;;;;;;14.25;10.98;;;;;;;;;;10303440;28;20095;-55
2021/09/22 04:36:46;;;;;;;12.57;11.27;;;;;;;;;;10323704;28;20052;-56
2021/09/22 04:42:03;;;;;;;13.80;10.25;;;;;;;;;;10322811;28;20056;-55
2021/09/22 04:47:20;;;;;;;13.13;10.23;;;;;;;;;;10322645;28;20053;-55
2021/09/22 04:52:46;;;;;;;11.38;9.85;;;;;;;;;;10289596;28;20087;-55
2021/09/22 04:58:04;;;;;;;11.30;10.20;;;;;;;;;;10331657;28;20040;-55
2021/09/22 05:03:21;;;;;;;13.13;10.82;;;;;;;;;;10331414;28;20084;-56
2021/09/22 05:08:39;;;;;;;14.98;9.85;;;;;;;;;;10320716;28;20064;-55
2021/09/22 05:13:56;;;;;;;25.48;11.23;;;;;;;;;;10328316;28;20076;-54
2021/09/22 05:19:13;;;;;;;20.50;11.00;;;;;;;;;;10327798;28;20048;-55
2021/09/22 05:24:32;;;;;;;14.43;10.02;;;;;;;;;;10324696;28;20076;-52
2021/09/22 05:29:48;;;;;;;11.48;10.35;;;;;;;;;;10318614;28;20048;-55
2021/09/22 05:35:06;;;;;;;10.60;9.60;;;;;;;;;;10323497;28;20494;-55
2021/09/22 05:40:25;;;;;;;11.98;9.20;;;;;;;;;;10321338;28;20645;-56
2021/09/22 05:45:42;;;;;;;12.50;9.90;;;;;;;;;;10319487;28;20083;-54
2021/09/22 05:51:16;;;;;;;10.07;9.02;;;;;;;;;;10244048;28;20072;-53
2021/09/22 05:56:34;;;;;;;10.73;9.63;;;;;;;;;;10320437;28;20716;-54
2021/09/22 06:01:51;;;;;;;10.70;9.48;;;;;;;;;;10318557;28;20128;-55
2021/09/22 06:07:08;;;;;;;13.80;9.48;;;;;;;;;;10317460;28;20079;-57
2021/09/22 06:12:41;;;;;;;18.98;11.95;;;;;;;;;;10272156;28;20169;-54
2021/09/22 06:17:40;;;;;;;13.15;11.38;;;;;;;;;;10313865;28;20079;-55
2021/09/22 06:22:40;;;;;;;13.48;12.07;;;;;;;;;;10297307;28;20071;-55
2021/09/22 06:27:39;;;;;;;11.77;10.52;;;;;;;;;;10316217;28;20080;-55
2021/09/22 06:32:38;;;;;;;14.15;12.02;;;;;;;;;;10312406;28;20076;-56
2021/09/22 06:37:55;;;;;;;11.52;10.18;;;;;;;;;;10312837;28;20079;-56
2021/09/22 06:42:58;;;;;;;16.55;13.63;;;;;;;;;;10294326;28;20040;-55
2021/09/22 06:47:58;;;;;;;14.70;11.73;;;;;;;;;;10315953;28;20044;-57
2021/09/22 06:52:57;;;;;;;16.23;13.63;;;;;;;;;;10315831;28;20490;-57
2021/09/22 06:57:55;;;;;;;12.32;11.10;;;;;;;;;;10316619;28;20032;-54
2021/09/22 07:02:54;;;;;;;14.05;9.80;;;;;;;;;;10314867;28;20080;-55
2021/09/22 07:07:54;;;;;;;15.35;11.35;;;;;;;;;;10315342;28;20072;-54
2021/09/22 07:12:52;;;;;;;13.13;10.30;;;;;;;;;;10316176;28;20087;-55
2021/09/22 07:17:51;;;;;;;12.60;11.10;;;;;;;;;;10315712;28;20077;-54
2021/09/22 07:22:49;;;;;;;14.20;11.65;;;;;;;;;;10315536;28;20320;-57
2021/09/22 07:27:49;;;;;;;11.15;10.05;;;;;;;;;;10314264;28;20051;-54
2021/09/22 07:32:48;;;;;;;11.55;9.93;;;;;;;;;;10314223;28;20080;-54
2021/09/22 07:37:47;;;;;;;12.82;8.95;;;;;;;;;;10313828;28;20088;-54
2021/09/22 07:42:46;;;;;;;9.48;8.55;;;;;;;;;;10316091;28;20517;-54
2021/09/22 07:47:45;;;;;;;20.85;11.02;;;;;;;;;;10323211;28;20083;-52
2021/09/22 07:52:45;;;;;;;12.68;11.32;;;;;;;;;;10322596;28;20083;-54
2021/09/22 07:57:44;;;;;;;12.27;10.57;;;;;;;;;;10322010;28;20071;-53
2021/09/22 08:02:42;;;;;;;17.02;10.60;;;;;;;;;;10322236;28;20045;-55
2021/09/22 08:07:43;;;;;;;10.68;9.57;;;;;;;;;;10321932;28;20056;-56
2021/09/22 08:12:41;;;;;;;11.30;10.18;;;;;;;;;;10322380;28;20072;-56
2021/09/22 08:17:40;;;;;;;14.25;10.93;;;;;;;;;;10321634;28;20425;-57
2021/09/22 08:22:39;;;;;;;22.00;16.02;;;;;;;;;;10321576;28;20045;-56
2021/09/22 08:27:38;;;;;;;13.63;10.88;;;;;;;;;;10321440;28;20040;-65
2021/09/22 08:32:37;;;;;;;13.65;11.80;;;;;;;;;;10320297;28;20048;-54
2021/09/22 08:37:35;;;;;;;16.30;11.32;;;;;;;;;;10321220;28;20041;-54
2021/09/22 08:42:34;;;;;;;14.63;11.68;;;;;;;;;;10320295;28;20449;-55
2021/09/22 08:47:34;;;;;;;14.60;12.07;;;;;;;;;;10321060;28;20076;-58
2021/09/22 08:52:32;;;;;;;13.13;11.52;;;;;;;;;;10319674;28;20223;-55
2021/09/22 08:57:31;;;;;;;14.18;12.30;;;;;;;;;;10319531;28;20044;-53
2021/09/22 09:02:39;;;;;;;15.88;12.82;;;;;;;;;;10320263;28;20048;-55
2021/09/22 09:07:46;;;;;;;16.92;14.98;;;;;;;;;;10319084;28;20048;-54
2021/09/22 09:12:45;;;;;;;15.82;11.75;;;;;;;;;;10319731;28;20500;-55
2021/09/22 09:17:46;;;;;;;15.90;12.65;;;;;;;;;;10319521;28;20067;-55
2021/09/22 09:22:53;;;;;;;16.00;11.73;;;;;;;;;;10319283;28;20063;-55
2021/09/22 09:27:52;;;;;;;17.20;12.45;;;;;;;;;;10318065;28;20049;-54
2021/09/22 09:32:52;;;;;;;26.05;13.00;;;;;;;;;;10318888;28;20045;-54
2021/09/22 09:37:51;;;;;;;19.50;13.80;;;;;;;;;;10318924;28;20044;-55
2021/09/22 09:42:51;;;;;;;18.13;14.25;;;;;;;;;;10318598;28;20037;-53
2021/09/22 09:48:01;;;;;;;22.00;18.40;;;;;;;;;;10318779;28;20056;-55
2021/09/22 09:53:01;;;;;;;19.55;16.33;;;;;;;;;;10318011;28;20068;-56
2021/09/22 09:57:59;;;;;;;23.02;17.27;;;;;;;;;;10317938;28;20517;-54
2021/09/22 10:03:09;;;;;;;17.85;15.93;;;;;;;;;;10317239;28;20524;-55
2021/09/22 10:08:10;;;;;;;57.15;47.10;;;;;;;;;;10316725;28;20052;-54
2021/09/22 10:13:08;;;;;;;19.90;16.55;;;;;;;;;;10317490;28;20040;-55
2021/09/22 10:18:07;;;;;;;22.70;16.52;;;;;;;;;;10316802;28;20524;-55
2021/09/22 10:23:07;;;;;;;24.63;18.00;;;;;;;;;;10317455;28;20036;-55
2021/09/22 10:28:06;;;;;;;22.55;19.95;;;;;;;;;;10317068;28;20048;-55
2021/09/22 10:33:04;;;;;;;23.23;19.25;;;;;;;;;;10315922;28;20091;-55
2021/09/22 10:38:23;;;;;;;22.10;19.48;;;;;;;;;;10316667;28;20493;-54
2021/09/22 10:43:23;;;;;;;22.42;19.95;;;;;;;;;;10316719;28;20039;-55
2021/09/22 10:48:22;;;;;;;25.20;21.45;;;;;;;;;;10316658;28;20091;-56
2021/09/22 10:53:45;;;;;;;28.25;25.15;;;;;;;;;;10316554;28;20040;-54
2021/09/22 10:58:50;;;;;;;45.17;39.55;;;;;;;;;;10297056;28;20051;-54
2021/09/22 11:03:55;;;;;;;30.25;26.52;;;;;;;;;;10316183;28;20048;-53
2021/09/22 11:09:04;;;;;;;24.45;21.58;;;;;;;;;;10316265;28;20075;-53
2021/09/22 11:14:04;;;;;;;27.90;25.00;;;;;;;;;;10315444;28;20080;-53
2021/09/22 11:19:04;;;;;;;27.55;23.52;;;;;;;;;;10318643;28;20067;-53
2021/09/22 11:24:09;;;;;;;32.25;24.60;;;;;;;;;;10324501;28;20417;-53
2021/09/22 11:29:09;;;;;;;25.05;22.35;;;;;;;;;;10323475;28;20056;-53
2021/09/22 11:34:07;;;;;;;25.85;21.20;;;;;;;;;;10323935;28;20083;-54
2021/09/22 11:39:21;;;;;;;24.95;21.70;;;;;;;;;;10323842;28;20037;-54
2021/09/22 11:44:20;;;;;;;26.83;21.77;;;;;;;;;;10322798;28;20525;-54
2021/09/22 11:49:19;;;;;;;23.63;19.48;;;;;;;;;;10323511;28;20537;-53
2021/09/22 11:54:18;;;;;;;21.92;18.67;;;;;;;;;;10322544;28;20075;-54
2021/09/22 11:59:16;;;;;;;25.83;18.90;;;;;;;;;;10322224;28;20178;-54
2021/09/22 12:04:17;;;;;;;25.60;21.27;;;;;;;;;;10322824;28;20074;-54
2021/09/22 12:09:15;;;;;;;49.50;39.30;;;;;;;;;;10321929;28;20040;-55
2021/09/22 12:14:26;;;;;;;55.53;47.00;;;;;;;;;;10321826;28;20083;-54
2021/09/22 12:19:26;;;;;;;57.90;48.20;;;;;;;;;;10321589;28;20051;-55
2021/09/22 12:24:25;;;;;;;52.67;43.22;;;;;;;;;;10303317;28;20525;-55
2021/09/22 12:29:23;;;;;;;48.92;41.67;;;;;;;;;;10320062;28;20052;-56
2021/09/22 12:34:23;;;;;;;38.63;32.95;;;;;;;;;;10320732;28;20099;-54
2021/09/22 12:39:26;;;;;;;37.72;33.58;;;;;;;;;;10320241;28;20041;-53
2021/09/22 12:44:25;;;;;;;43.38;30.45;;;;;;;;;;10320090;28;20514;-54
2021/09/22 12:49:24;;;;;;;41.95;30.73;;;;;;;;;;10320541;28;20064;-54
2021/09/22 12:54:24;;;;;;;37.75;33.70;;;;;;;;;;10321097;28;20045;-55
2021/09/22 12:59:27;;;;;;;37.05;33.20;;;;;;;;;;10319657;28;20045;-54
2021/09/22 13:04:26;;;;;;;42.63;36.38;;;;;;;;;;10320631;28;20044;-55
2021/09/22 13:09:33;;;;;;;48.00;36.10;;;;;;;;;;10319811;28;20049;-56
2021/09/22 13:14:36;;;;;;;41.10;31.30;;;;;;;;;;10319522;28;20048;-69
2021/09/22 13:19:34;;;;;;;29.08;25.98;;;;;;;;;;10319656;28;20441;-54
2021/09/22 13:24:38;;;;;;;29.25;25.88;;;;;;;;;;10319107;28;20532;-54
2021/09/22 13:29:36;;;;;;;27.20;23.95;;;;;;;;;;10318873;28;20045;-54
2021/09/22 13:34:35;;;;;;;29.75;23.13;;;;;;;;;;10318388;28;20048;-54
2021/09/22 13:39:33;;;;;;;26.63;22.48;;;;;;;;;;10318590;28;20418;-55
2021/09/22 13:44:33;;;;;;;25.15;22.45;;;;;;;;;;10317643;28;20083;-54
2021/09/22 13:49:32;;;;;;;21.42;19.30;;;;;;;;;;10318594;28;20047;-54
2021/09/22 13:54:30;;;;;;;26.38;21.08;;;;;;;;;;10317623;28;20056;-55
2021/09/22 13:59:29;;;;;;;23.02;19.05;;;;;;;;;;10317514;28;20072;-55
2021/09/22 14:04:29;;;;;;;21.70;18.15;;;;;;;;;;10317932;28;20051;-54
2021/09/22 14:09:28;;;;;;;24.70;18.95;;;;;;;;;;10317585;28;20060;-53
2021/09/22 14:14:26;;;;;;;21.60;18.17;;;;;;;;;;10317862;28;20067;-55
2021/09/22 14:19:25;;;;;;;21.85;18.05;;;;;;;;;;10316848;28;20075;-54
2021/09/22 14:24:25;;;;;;;22.02;18.15;;;;;;;;;;10316853;28;20037;-56
2021/09/22 14:29:23;;;;;;;20.05;17.95;;;;;;;;;;10316271;28;20425;-57
2021/09/22 14:34:22;;;;;;;19.35;17.33;;;;;;;;;;10317012;28;20045;-54
2021/09/22 14:39:20;;;;;;;20.65;18.48;;;;;;;;;;10315488;28;20478;-57
2021/09/22 14:44:21;;;;;;;22.38;19.90;;;;;;;;;;10315295;28;20056;-57
2021/09/22 14:49:19;;;;;;;28.00;24.52;;;;;;;;;;10316705;28;20048;-56
2021/09/22 14:54:17;;;;;;;36.80;32.50;;;;;;;;;;10315930;28;20497;-56
2021/09/22 14:59:16;;;;;;;83.28;75.35;;;;;;;;;;10315773;28;20072;-57
2021/09/22 15:04:15;;;;;;;55.72;50.15;;;;;;;;;;10316277;28;20063;-56
2021/09/22 15:09:14;;;;;;;42.88;33.58;;;;;;;;;;10315632;28;20056;-56
2021/09/22 15:14:16;;;;;;;30.55;26.98;;;;;;;;;;10316310;28;20044;-56
2021/09/22 15:19:14;;;;;;;38.42;33.03;;;;;;;;;;10316046;28;20072;-56
2021/09/22 15:24:13;;;;;;;38.40;34.20;;;;;;;;;;10315387;28;20040;-54
2021/09/22 15:29:12;;;;;;;36.25;30.42;;;;;;;;;;10315153;28;20064;-55
2021/09/22 15:34:10;;;;;;;32.90;27.30;;;;;;;;;;10315728;28;20075;-56
2021/09/22 15:39:08;;;;;;;29.23;24.15;;;;;;;;;;10315639;28;20072;-56
2021/09/22 15:44:08;;;;;;;33.40;27.45;;;;;;;;;;10314204;28;20080;-56
2021/09/22 15:49:06;;;;;;;66.05;52.58;;;;;;;;;;10315411;28;20513;-57
2021/09/22 15:54:07;;;;;;;33.80;29.20;;;;;;;;;;10314705;28;20055;-53
2021/09/22 15:59:05;;;;;;;33.28;26.75;;;;;;;;;;10313549;28;20102;-54
2021/09/22 16:04:05;;;;;;;29.55;25.98;;;;;;;;;;10316538;28;20067;-53
2021/09/22 16:09:04;;;;;;;31.77;24.67;;;;;;;;;;10318743;28;20040;-57
2021/09/22 16:14:03;;;;;;;27.48;24.58;;;;;;;;;;10318173;28;20048;-55
2021/09/22 16:19:01;;;;;;;30.05;24.42;;;;;;;;;;10321964;28;20068;-56
2021/09/22 16:24:01;;;;;;;35.90;26.55;;;;;;;;;;10321144;28;20072;-55
2021/09/22 16:28:59;;;;;;;35.97;30.33;;;;;;;;;;10321024;28;20040;-56
2021/09/22 16:33:57;;;;;;;31.55;28.15;;;;;;;;;;10321349;28;20068;-55
2021/09/22 16:38:56;;;;;;;25.20;21.55;;;;;;;;;;10320527;28;20283;-54
2021/09/22 16:43:55;;;;;;;22.92;18.77;;;;;;;;;;10317641;28;20081;-55
2021/09/22 16:48:54;;;;;;;25.60;17.27;;;;;;;;;;10320559;28;20045;-53
2021/09/22 16:53:53;;;;;;;18.98;16.40;;;;;;;;;;10320897;28;20465;-52
2021/09/22 16:58:51;;;;;;;16.67;14.88;;;;;;;;;;10320591;28;20086;-56
2021/09/22 17:03:51;;;;;;;22.52;14.88;;;;;;;;;;10320174;28;20071;-55
2021/09/22 17:08:50;;;;;;;16.88;13.95;;;;;;;;;;10320465;28;20516;-56
2021/09/22 17:13:49;;;;;;;14.88;13.32;;;;;;;;;;10319783;28;20087;-56
2021/09/22 17:18:47;;;;;;;17.75;13.52;;;;;;;;;;10318956;28;20091;-55
2021/09/22 17:23:47;;;;;;;19.40;14.82;;;;;;;;;;10319480;28;20409;-55
2021/09/22 17:28:45;;;;;;;14.95;12.25;;;;;;;;;;10319562;28;20068;-55
2021/09/22 17:33:43;;;;;;;16.20;12.23;;;;;;;;;;10319238;28;20048;-55
2021/09/22 17:38:42;;;;;;;17.08;13.90;;;;;;;;;;10318538;28;20083;-55
2021/09/22 17:43:41;;;;;;;17.73;15.60;;;;;;;;;;10317880;28;20489;-55
2021/09/22 17:48:40;;;;;;;20.73;16.42;;;;;;;;;;10318941;28;20517;-54
2021/09/22 17:53:39;;;;;;;19.20;15.73;;;;;;;;;;10318098;28;20071;-56
2021/09/22 17:58:37;;;;;;;26.48;18.88;;;;;;;;;;10317612;28;20075;-55
2021/09/22 18:03:37;;;;;;;23.13;17.27;;;;;;;;;;10317552;28;20048;-59
2021/09/22 18:08:36;;;;;;;19.73;14.45;;;;;;;;;;10316767;28;20060;-55
2021/09/22 18:13:34;;;;;;;26.20;15.50;;;;;;;;;;10316897;28;20048;-54
2021/09/22 18:18:32;;;;;;;21.42;17.15;;;;;;;;;;10317082;28;20072;-51
2021/09/22 18:23:32;;;;;;;24.13;16.83;;;;;;;;;;10316084;28;20044;-53
2021/09/22 18:28:30;;;;;;;25.58;17.80;;;;;;;;;;10313206;28;20048;-56
2021/09/22 18:33:29;;;;;;;24.60;17.77;;;;;;;;;;10314148;28;20048;-54
2021/09/22 18:38:27;;;;;;;22.27;17.20;;;;;;;;;;10316679;28;20106;-55
2021/09/22 18:43:29;;;;;;;19.88;15.55;;;;;;;;;;10315561;28;20521;-52
2021/09/22 18:48:28;;;;;;;17.85;15.75;;;;;;;;;;10315613;28;20091;-53
2021/09/22 18:53:27;;;;;;;27.05;15.38;;;;;;;;;;10315229;28;20068;-52
2021/09/22 18:58:27;;;;;;;22.83;14.50;;;;;;;;;;10314376;28;20076;-53
2021/09/22 19:03:25;;;;;;;18.75;14.43;;;;;;;;;;10311361;28;20051;-56
2021/09/22 19:08:24;;;;;;;18.45;14.18;;;;;;;;;;10310833;28;20084;-54
2021/09/22 19:13:25;;;;;;;19.10;12.98;;;;;;;;;;10309882;28;20181;-52
2021/09/22 19:18:24;;;;;;;18.48;13.20;;;;;;;;;;10311838;28;20072;-54
2021/09/22 19:23:24;;;;;;;16.02;13.55;;;;;;;;;;10311967;28;20044;-52
2021/09/22 19:28:22;;;;;;;17.27;13.13;;;;;;;;;;10314236;28;20071;-53
2021/09/22 19:33:22;;;;;;;13.88;11.75;;;;;;;;;;10314055;28;20053;-54
2021/09/22 19:38:22;;;;;;;22.08;11.77;;;;;;;;;;10311895;28;20087;-56
2021/09/22 19:43:20;;;;;;;12.90;11.25;;;;;;;;;;10320433;28;20056;-55
2021/09/22 19:48:18;;;;;;;11.95;10.18;;;;;;;;;;10320240;28;20056;-55
2021/09/22 19:53:17;;;;;;;15.30;9.55;;;;;;;;;;10318753;28;20068;-55
2021/09/22 19:58:16;;;;;;;11.50;10.07;;;;;;;;;;10321370;28;20552;-54
2021/09/22 20:03:15;;;;;;;12.95;9.70;;;;;;;;;;10321133;28;20689;-55
2021/09/22 20:08:14;;;;;;;10.50;8.15;;;;;;;;;;10320993;28;20045;-56
2021/09/22 20:13:12;;;;;;;8.85;7.95;;;;;;;;;;10318615;28;20078;-53
2021/09/22 20:18:12;;;;;;;8.77;7.60;;;;;;;;;;10319665;28;20509;-55
2021/09/22 20:23:10;;;;;;;9.15;8.25;;;;;;;;;;10317497;28;20375;-55
2021/09/22 20:28:09;;;;;;;11.13;7.28;;;;;;;;;;10319694;28;20052;-51
2021/09/22 20:33:07;;;;;;;8.50;7.28;;;;;;;;;;10319435;28;20391;-53
2021/09/22 20:38:07;;;;;;;10.75;7.70;;;;;;;;;;10319738;28;20075;-52
2021/09/22 20:43:06;;;;;;;8.90;7.55;;;;;;;;;;10318179;28;20052;-56
2021/09/22 20:48:05;;;;;;;8.45;7.20;;;;;;;;;;10319631;28;20048;-55
2021/09/22 20:53:03;;;;;;;9.48;7.13;;;;;;;;;;10316058;28;20078;-55
2021/09/22 20:58:03;;;;;;;8.35;7.47;;;;;;;;;;10316584;28;20476;-53
2021/09/22 21:03:01;;;;;;;8.10;7.32;;;;;;;;;;10315357;28;20451;-56
2021/09/22 21:08:00;;;;;;;11.32;8.60;;;;;;;;;;10317898;28;20055;-56
2021/09/22 21:13:00;;;;;;;8.88;7.97;;;;;;;;;;10318282;28;20055;-56
2021/09/22 21:18:00;;;;;;;9.50;8.55;;;;;;;;;;10315253;28;20067;-56
2021/09/22 21:22:58;;;;;;;8.73;7.82;;;;;;;;;;10318866;28;20078;-49
2021/09/22 21:27:57;;;;;;;9.00;8.00;;;;;;;;;;10317664;28;20048;-57
2021/09/22 21:32:55;;;;;;;9.05;8.25;;;;;;;;;;10318402;28;20052;-56
2021/09/22 21:37:55;;;;;;;9.20;8.18;;;;;;;;;;10318395;28;20453;-56
2021/09/22 21:42:55;;;;;;;10.13;9.13;;;;;;;;;;10318738;28;20067;-56
2021/09/22 21:47:53;;;;;;;10.43;8.25;;;;;;;;;;10318440;28;20417;-50
2021/09/22 21:52:52;;;;;;;10.60;9.27;;;;;;;;;;10317724;28;20052;-57
2021/09/22 21:57:52;;;;;;;9.95;9.02;;;;;;;;;;10317525;28;20132;-57
2021/09/22 22:02:50;;;;;;;11.15;9.70;;;;;;;;;;10317537;28;20048;-56
2021/09/22 22:07:48;;;;;;;11.27;10.18;;;;;;;;;;10317270;28;20076;-56
2021/09/22 22:12:47;;;;;;;10.77;9.55;;;;;;;;;;10316387;28;20116;-55
2021/09/22 22:17:47;;;;;;;9.30;8.40;;;;;;;;;;10317304;28;20037;-55
2021/09/22 22:22:45;;;;;;;11.23;8.95;;;;;;;;;;10316442;28;20461;-55
2021/09/22 22:27:44;;;;;;;11.30;9.38;;;;;;;;;;10315451;28;20049;-55
2021/09/22 22:32:42;;;;;;;10.60;9.45;;;;;;;;;;10315577;28;20076;-55
2021/09/22 22:37:44;;;;;;;10.57;9.30;;;;;;;;;;10315623;28;20079;-55
2021/09/22 22:42:42;;;;;;;10.95;9.65;;;;;;;;;;10315211;28;20049;-53
2021/09/22 22:47:41;;;;;;;10.52;9.43;;;;;;;;;;10315237;28;20411;-56
2021/09/22 22:52:39;;;;;;;11.05;9.52;;;;;;;;;;10315065;28;20468;-56
2021/09/22 22:57:39;;;;;;;10.32;9.23;;;;;;;;;;10314764;28;20498;-53
2021/09/22 23:02:37;;;;;;;11.30;10.30;;;;;;;;;;10314241;28;20072;-56
2021/09/22 23:07:36;;;;;;;10.60;9.50;;;;;;;;;;10314812;28;20048;-54
2021/09/22 23:12:34;;;;;;;11.45;9.85;;;;;;;;;;10315605;28;20071;-56
2021/09/22 23:17:39;;;;;;;10.80;9.70;;;;;;;;;;10315175;28;20032;-55
2021/09/22 23:27:53;;;;;;;9.95;8.95;;;;;;;;;;10315041;28;20044;-55
2021/09/22 23:32:53;;;;;;;12.93;8.70;;;;;;;;;;10310613;28;20049;-55
2021/09/22 23:37:51;;;;;;;11.80;9.43;;;;;;;;;;10313223;28;20040;-55
2021/09/22 23:42:50;;;;;;;9.68;8.63;;;;;;;;;;10312506;28;20083;-55
2021/09/22 23:47:48;;;;;;;10.10;8.75;;;;;;;;;;10314666;28;20147;-55
2021/09/22 23:52:48;;;;;;;10.45;9.45;;;;;;;;;;10313574;28;20083;-54
2021/09/22 23:57:46;;;;;;;10.20;9.20;;;;;;;;;;10312992;28;20159;-54
